Time;durP1;ratioP1;P1;durP2;ratioP2;P2;SDS_P1;SDS_P2;PMS_P1;PMS_P2;Temp;Humidity;BMP_temperature;BMP_pressure;BME280_temperature;BME280_humidity;BME280_pressure;Samples;Min_cycle;Max_cycle;Signal;HPM_P1;HPM_P2
2022/08/15 00:00:18;;;;;;;861.80;801.88;;;;;;;28.25;46.02;100213.09;695093;28;46408;-65
2022/08/15 00:00:41;;;;;;;871.38;811.17;;;;;;;28.20;45.83;100202.94;691554;28;68319;-65
2022/08/15 00:01:06;;;;;;;865.38;805.35;;;;;;;28.23;45.51;100209.81;690520;28;90470;-65
2022/08/15 00:01:30;;;;;;;846.83;787.35;;;;;;;28.21;45.99;100203.75;690699;28;92247;-65
2022/08/15 00:01:51;;;;;;;872.10;811.88;;;;;;;28.18;46.19;100205.19;689784;28;90776;-65
2022/08/15 00:02:13;;;;;;;864.10;804.00;;;;;;;28.16;46.10;100201.88;694967;28;22430;-65
2022/08/15 00:02:35;;;;;;;851.22;791.60;;;;;;;28.15;45.90;100205.81;694328;28;69242;-65
2022/08/15 00:02:57;;;;;;;859.30;799.38;;;;;;;28.15;46.28;100208.59;692728;28;22537;-66
2022/08/15 00:03:24;;;;;;;859.47;799.53;;;;;;;28.15;45.91;100204.97;691069;28;69394;-65
2022/08/15 00:03:48;;;;;;;860.55;800.55;;;;;;;28.18;45.64;100212.69;688908;28;136303;-65
2022/08/15 00:04:10;;;;;;;885.92;825.13;;;;;;;28.14;46.05;100203.34;690436;28;93037;-65
2022/08/15 00:04:31;;;;;;;866.30;806.13;;;;;;;28.14;45.96;100206.13;692052;28;46359;-65
2022/08/15 00:04:52;;;;;;;873.03;812.72;;;;;;;28.14;45.85;100203.34;694288;28;23479;-65
2022/08/15 00:05:17;;;;;;;874.63;814.22;;;;;;;28.16;45.96;100213.00;694752;28;23509;-65
2022/08/15 00:05:38;;;;;;;871.63;811.38;;;;;;;28.14;46.14;100200.56;692729;28;115146;-65
2022/08/15 00:06:03;;;;;;;863.33;803.28;;;;;;;28.15;45.95;100203.03;695600;28;23471;-65
2022/08/15 00:06:29;;;;;;;867.30;807.15;;;;;;;28.17;45.77;100208.28;692266;28;115301;-65
2022/08/15 00:06:50;;;;;;;870.65;810.35;;;;;;;28.16;46.25;100201.06;690145;28;136411;-65
2022/08/15 00:07:12;;;;;;;881.42;820.72;;;;;;;28.16;45.74;100201.88;694786;28;22416;-65
2022/08/15 00:07:34;;;;;;;872.25;811.92;;;;;;;28.17;45.74;100209.09;694991;28;46151;-65
2022/08/15 00:07:55;;;;;;;876.53;816.05;;;;;;;28.16;45.81;100201.88;694955;28;46393;-65
2022/08/15 00:08:18;;;;;;;870.38;810.10;;;;;;;28.13;45.95;100201.69;695769;28;22378;-65
2022/08/15 00:08:42;;;;;;;869.80;809.50;;;;;;;28.14;45.71;100204.16;694981;28;44455;-65
2022/08/15 00:09:05;;;;;;;866.72;806.50;;;;;;;28.15;46.33;100202.19;693315;28;90744;-65
2022/08/15 00:09:26;;;;;;;873.35;813.00;;;;;;;28.14;46.01;100200.56;693346;28;92067;-65
2022/08/15 00:09:49;;;;;;;849.22;789.63;;;;;;;28.10;45.96;100200.34;695759;28;21233;-66
2022/08/15 00:10:10;;;;;;;857.75;797.80;;;;;;;28.11;46.12;100207.56;694811;28;46340;-65
2022/08/15 00:10:32;;;;;;;873.00;812.70;;;;;;;28.11;46.02;100204.78;695066;28;45226;-65
2022/08/15 00:10:55;;;;;;;879.38;818.78;;;;;;;28.12;46.06;100200.03;695593;28;22389;-65
2022/08/15 00:11:20;;;;;;;862.58;802.50;;;;;;;28.11;46.42;100202.00;693134;28;91574;-65
2022/08/15 00:11:46;;;;;;;867.78;807.63;;;;;;;28.08;46.37;100196.25;691748;28;115133;-65
2022/08/15 00:12:07;;;;;;;882.67;822.05;;;;;;;28.09;46.04;100204.28;689851;28;115308;-65
2022/08/15 00:12:29;;;;;;;859.83;799.92;;;;;;;28.07;46.08;100186.25;692264;28;44375;-65
2022/08/15 00:12:50;;;;;;;869.92;809.72;;;;;;;28.12;46.02;100202.81;694356;28;23482;-65
2022/08/15 00:13:14;;;;;;;871.95;811.65;;;;;;;28.11;45.92;100199.22;695011;28;46394;-65
2022/08/15 00:13:38;;;;;;;883.15;822.45;;;;;;;28.11;45.87;100201.19;693870;28;61969;-65
2022/08/15 00:14:03;;;;;;;881.75;821.15;;;;;;;28.10;46.21;100205.91;690318;28;90359;-65
2022/08/15 00:14:27;;;;;;;876.15;815.67;;;;;;;28.09;45.95;100197.88;689700;28;115117;-65
2022/08/15 00:14:49;;;;;;;879.10;818.63;;;;;;;28.06;46.57;100191.00;690411;28;90725;-65
2022/08/15 00:15:13;;;;;;;872.20;811.88;;;;;;;28.04;46.21;100194.09;691176;28;69467;-65
2022/08/15 00:15:35;;;;;;;866.05;805.92;;;;;;;28.06;46.48;100199.34;690348;28;92277;-65
2022/08/15 00:16:06;;;;;;;872.60;812.28;;;;;;;28.04;46.34;100198.78;694370;28;61354;-65
2022/08/15 00:16:32;;;;;;;873.75;813.35;;;;;;;28.03;46.75;100197.97;695355;28;23431;-65
2022/08/15 00:16:55;;;;;;;871.97;811.63;;;;;;;28.04;46.67;100194.09;690482;28;137936;-65
2022/08/15 00:17:16;;;;;;;869.20;808.80;;;;;;;28.03;46.59;100197.16;693917;28;69384;-65
2022/08/15 00:17:38;;;;;;;866.50;806.30;;;;;;;28.04;46.66;100199.63;694835;28;46239;-65
2022/08/15 00:17:59;;;;;;;891.28;830.38;;;;;;;28.04;46.33;100193.25;694900;28;44380;-65
2022/08/15 00:18:24;;;;;;;877.67;817.13;;;;;;;28.03;46.13;100200.75;695559;28;23469;-65
2022/08/15 00:18:47;;;;;;;877.47;817.08;;;;;;;28.04;46.35;100193.25;692617;28;115414;-66
2022/08/15 00:19:11;;;;;;;879.95;819.40;;;;;;;28.04;46.62;100193.25;694168;28;69755;-66
2022/08/15 00:19:33;;;;;;;872.72;812.42;;;;;;;28.04;46.09;100196.88;693297;28;89979;-65
2022/08/15 00:19:56;;;;;;;880.63;819.95;;;;;;;28.03;46.24;100191.63;694680;28;46381;-65
2022/08/15 00:20:18;;;;;;;879.97;819.35;;;;;;;28.00;46.61;100193.03;694889;28;46236;-65
2022/08/15 00:20:39;;;;;;;883.58;822.95;;;;;;;28.05;46.43;100197.69;695023;28;44343;-65
2022/08/15 00:21:03;;;;;;;876.83;816.42;;;;;;;28.05;46.41;100198.50;694773;28;46268;-65
2022/08/15 00:21:25;;;;;;;861.22;801.25;;;;;;;28.02;46.64;100198.28;694097;28;69677;-65
2022/08/15 00:21:51;;;;;;;870.95;810.63;;;;;;;28.01;46.75;100200.25;693175;28;69277;-65
2022/08/15 00:22:17;;;;;;;875.97;815.55;;;;;;;28.01;46.37;100199.41;692584;28;115372;-66
2022/08/15 00:22:46;;;;;;;867.85;807.65;;;;;;;28.02;46.13;100199.09;691771;28;138081;-65
2022/08/15 00:23:09;;;;;;;867.10;806.92;;;;;;;28.01;46.19;100203.03;691296;28;137498;-66
2022/08/15 00:23:30;;;;;;;875.85;815.38;;;;;;;28.00;46.66;100195.81;693720;28;70424;-66
2022/08/15 00:23:52;;;;;;;875.42;814.97;;;;;;;27.95;46.25;100195.13;694832;28;45260;-66
2022/08/15 00:24:16;;;;;;;874.28;813.88;;;;;;;28.01;46.28;100196.63;695783;28;22439;-66
2022/08/15 00:24:37;;;;;;;874.55;814.17;;;;;;;27.98;46.30;100200.06;693425;28;92396;-66
2022/08/15 00:24:58;;;;;;;864.40;804.35;;;;;;;27.96;46.86;100203.13;694805;28;44395;-65
2022/08/15 00:25:20;;;;;;;868.35;808.13;;;;;;;27.97;46.92;100203.94;695629;28;21545;-65
2022/08/15 00:25:47;;;;;;;861.92;801.90;;;;;;;27.97;46.72;100206.72;695573;28;23496;-65
2022/08/15 00:26:10;;;;;;;895.60;834.53;;;;;;;27.96;46.72;100202.28;691766;28;136221;-65
2022/08/15 00:26:34;;;;;;;889.03;828.22;;;;;;;27.95;46.47;100193.16;694126;28;68394;-65
2022/08/15 00:26:57;;;;;;;874.60;814.03;;;;;;;27.95;46.87;100207.03;690727;28;113406;-65
2022/08/15 00:27:24;;;;;;;881.45;820.70;;;;;;;27.95;46.84;100198.72;693314;28;67476;-65
2022/08/15 00:27:45;;;;;;;881.50;820.88;;;;;;;27.93;46.87;100205.66;688670;28;138651;-65
2022/08/15 00:28:07;;;;;;;871.40;811.00;;;;;;;27.96;46.64;100196.75;692652;28;22419;-66
2022/08/15 00:28:29;;;;;;;869.28;809.00;;;;;;;27.91;46.43;100194.03;691994;28;44444;-66
2022/08/15 00:28:51;;;;;;;864.58;804.38;;;;;;;27.95;46.93;100206.22;690878;28;66252;-65
2022/08/15 00:29:13;;;;;;;876.47;815.90;;;;;;;27.92;46.89;100206.81;691357;28;22406;-65
2022/08/15 00:29:36;;;;;;;872.85;812.40;;;;;;;27.88;47.07;100201.03;690228;28;44374;-65
2022/08/15 00:29:57;;;;;;;886.03;825.25;;;;;;;27.88;46.37;100201.03;691043;28;69313;-65
2022/08/15 00:30:19;;;;;;;878.97;818.40;;;;;;;27.89;46.46;100201.88;692820;28;21525;-65
2022/08/15 00:30:41;;;;;;;868.90;808.60;;;;;;;27.87;47.06;100200.22;692882;28;21323;-65
2022/08/15 00:31:05;;;;;;;889.13;828.13;;;;;;;27.84;46.40;100194.47;689247;28;67523;-65
2022/08/15 00:31:28;;;;;;;867.58;807.33;;;;;;;27.84;47.17;100200.00;687109;28;90721;-65
2022/08/15 00:31:53;;;;;;;867.08;806.88;;;;;;;27.81;46.58;100200.63;688408;28;46281;-66
2022/08/15 00:32:18;;;;;;;879.80;819.20;;;;;;;27.82;47.00;100193.91;685782;28;136742;-66
2022/08/15 00:32:41;;;;;;;859.25;799.28;;;;;;;27.80;47.30;100198.97;682413;28;159340;-66
2022/08/15 00:33:04;;;;;;;879.20;818.50;;;;;;;27.80;46.81;100196.19;686491;28;45140;-65
2022/08/15 00:33:28;;;;;;;883.15;822.40;;;;;;;27.76;47.12;100193.22;688858;28;46356;-65
2022/08/15 00:33:50;;;;;;;877.42;816.92;;;;;;;27.75;46.82;100199.06;686875;28;113584;-65
2022/08/15 00:34:15;;;;;;;887.53;826.65;;;;;;;27.75;47.32;100199.06;693575;28;45230;-65
2022/08/15 00:34:37;;;;;;;880.83;820.15;;;;;;;27.76;47.01;100197.91;690043;28;115301;-65
2022/08/15 00:34:58;;;;;;;883.13;822.40;;;;;;;27.75;47.29;100196.28;689473;28;23492;-65
2022/08/15 00:35:39;;;;;;;866.17;805.88;;;;;;;27.75;46.83;100197.09;688920;28;46281;-66
2022/08/15 00:36:04;;;;;;;892.13;831.10;;;;;;;27.75;47.41;100196.28;685433;28;136720;-65
2022/08/15 00:36:26;;;;;;;886.42;825.55;;;;;;;27.75;46.78;100194.31;687510;28;69194;-65
2022/08/15 00:36:48;;;;;;;866.90;806.67;;;;;;;27.76;47.14;100195.13;686497;28;22397;-65
2022/08/15 00:37:09;;;;;;;868.72;808.20;;;;;;;27.75;47.40;100190.75;687866;28;69443;-65
2022/08/15 00:37:32;;;;;;;874.47;813.90;;;;;;;27.75;47.46;100193.50;690019;28;23409;-65
2022/08/15 00:37:55;;;;;;;874.58;814.08;;;;;;;27.73;46.91;100193.81;689113;28;47365;-65
2022/08/15 00:38:20;;;;;;;861.95;801.83;;;;;;;27.74;47.32;100194.63;687297;28;113392;-66
2022/08/15 00:38:41;;;;;;;867.47;807.28;;;;;;;27.73;47.02;100192.97;692694;28;69242;-66
2022/08/15 00:39:06;;;;;;;887.75;827.00;;;;;;;27.74;47.24;100198.22;691685;28;46412;-66
2022/08/15 00:39:29;;;;;;;869.85;809.60;;;;;;;27.76;46.92;100197.91;690337;28;90505;-65
2022/08/15 00:39:51;;;;;;;879.85;819.33;;;;;;;27.76;47.38;100193.22;691021;28;69432;-65
2022/08/15 00:40:12;;;;;;;892.08;831.08;;;;;;;27.76;47.39;100192.38;692076;28;46307;-65
2022/08/15 00:41:39;;;;;;;873.72;813.35;;;;;;;27.74;47.03;100202.97;692616;28;22353;-65
2022/08/15 00:41:58;;;;;;;871.97;811.58;;;;;;;27.73;47.23;100193.81;685105;28;136000;-65
2022/08/15 00:42:23;;;;;;;878.25;817.65;;;;;;;27.71;47.37;100193.28;688461;28;69284;-65
2022/08/15 00:42:44;;;;;;;863.42;803.28;;;;;;;27.72;47.54;100194.13;684024;28;115695;-66
2022/08/15 00:43:05;;;;;;;848.70;788.90;;;;;;;27.73;47.33;100201.31;687132;28;22442;-66
2022/08/15 00:43:28;;;;;;;847.67;788.03;;;;;;;27.70;46.96;100194.44;684508;28;21519;-65
2022/08/15 00:43:52;;;;;;;862.97;802.88;;;;;;;27.67;47.47;100198.63;686697;28;46407;-66
2022/08/15 00:44:16;;;;;;;868.67;808.40;;;;;;;27.64;47.77;100195.66;688962;28;114990;-65
2022/08/15 00:44:42;;;;;;;863.22;803.10;;;;;;;27.66;47.11;100194.19;688859;28;93118;-65
2022/08/15 00:45:05;;;;;;;863.72;803.60;;;;;;;27.67;47.15;100200.59;685088;28;138168;-65
2022/08/15 00:45:26;;;;;;;860.85;800.88;;;;;;;27.67;47.09;100195.03;690596;28;69567;-66
2022/08/15 00:45:49;;;;;;;870.20;809.95;;;;;;;27.65;47.30;100198.13;688596;28;45293;-66
2022/08/15 00:46:12;;;;;;;865.63;805.47;;;;;;;27.65;47.59;100197.31;687902;28;67137;-65
2022/08/15 00:46:35;;;;;;;843.95;784.40;;;;;;;27.65;47.54;100200.88;687538;28;92173;-66
2022/08/15 00:46:59;;;;;;;879.10;818.42;;;;;;;27.65;47.52;100197.31;685006;28;69371;-66
2022/08/15 00:47:22;;;;;;;881.92;821.20;;;;;;;27.64;47.76;100193.69;685145;28;69430;-65
2022/08/15 00:48:41;;;;;;;883.13;822.40;;;;;;;27.65;47.31;100195.34;684624;28;70611;-65
2022/08/15 00:48:41;;;;;;;865.47;805.33;;;;;;;27.61;47.63;100190.72;686061;28;135844;-65
2022/08/15 00:49:03;;;;;;;873.33;812.92;;;;;;;27.60;47.34;100192.66;687779;28;137173;-65
2022/08/15 00:49:26;;;;;;;889.88;829.00;;;;;;;27.58;47.91;100189.34;692016;28;44428;-65
2022/08/15 00:49:48;;;;;;;862.30;802.28;;;;;;;27.59;47.75;100191.00;690244;28;90312;-65
2022/08/15 00:50:13;;;;;;;861.30;801.22;;;;;;;27.61;47.36;100194.28;692584;28;23424;-65
2022/08/15 00:50:36;;;;;;;880.45;819.85;;;;;;;27.54;47.85;100193.03;686417;28;115245;-65
2022/08/15 00:50:58;;;;;;;878.83;818.23;;;;;;;27.55;47.97;100195.50;689167;28;90150;-65
2022/08/15 00:51:28;;;;;;;856.38;796.53;;;;;;;27.55;47.80;100191.94;691733;28;46519;-65
2022/08/15 00:51:52;;;;;;;855.35;795.47;;;;;;;27.54;47.51;100190.28;687843;28;138517;-65
2022/08/15 00:52:20;;;;;;;859.85;799.80;;;;;;;27.53;47.46;100188.66;690294;28;92263;-66
2022/08/15 00:52:41;;;;;;;866.78;806.58;;;;;;;27.49;47.55;100188.41;688092;28;137752;-66
2022/08/15 00:53:06;;;;;;;870.67;810.38;;;;;;;27.51;47.59;100205.59;692638;28;23506;-65
2022/08/15 00:53:28;;;;;;;875.58;815.08;;;;;;;27.51;47.75;100200.84;687347;28;90628;-66
2022/08/15 00:53:53;;;;;;;883.22;822.55;;;;;;;27.54;47.68;100202.22;688499;28;46317;-66
2022/08/15 00:54:17;;;;;;;877.88;817.30;;;;;;;27.51;47.58;100186.19;684149;28;111296;-65
2022/08/15 00:54:41;;;;;;;868.03;807.83;;;;;;;27.55;47.51;100197.47;686793;28;90657;-65
2022/08/15 00:55:07;;;;;;;853.83;793.97;;;;;;;27.55;47.44;100192.75;687449;28;90310;-65
2022/08/15 00:55:30;;;;;;;872.50;812.08;;;;;;;27.53;47.44;100200.56;688356;28;138529;-65
2022/08/15 00:55:51;;;;;;;877.05;816.63;;;;;;;27.55;47.99;100203.03;691798;28;46421;-65
2022/08/15 00:56:13;;;;;;;877.60;817.10;;;;;;;27.53;47.78;100200.56;692930;28;21572;-66
2022/08/15 00:56:38;;;;;;;875.35;814.85;;;;;;;27.54;47.52;100201.38;692170;28;46296;-65
2022/08/15 00:57:03;;;;;;;859.45;799.45;;;;;;;27.50;47.51;100190.88;661427;28;156718;-65
2022/08/15 00:57:28;;;;;;;852.95;793.15;;;;;;;27.53;47.72;100191.41;688471;28;114943;-65
2022/08/15 00:57:49;;;;;;;874.78;814.35;;;;;;;27.52;48.01;100201.66;689331;28;115218;-65
2022/08/15 00:58:11;;;;;;;865.25;805.05;;;;;;;27.50;47.89;100195.63;692812;28;23449;-66
2022/08/15 00:58:32;;;;;;;853.25;793.50;;;;;;;27.50;47.89;100196.44;689393;28;23487;-65
2022/08/15 00:58:55;;;;;;;861.97;802.00;;;;;;;27.51;47.58;100202.81;689359;28;35648;-66
2022/08/15 00:59:21;;;;;;;873.03;812.67;;;;;;;27.51;47.93;100197.28;688452;28;46447;-65
2022/08/15 00:59:45;;;;;;;855.72;795.92;;;;;;;27.50;47.86;100193.66;686105;28;136466;-65
2022/08/15 01:00:12;;;;;;;859.53;799.60;;;;;;;27.50;48.05;100198.38;687108;28;92301;-66
2022/08/15 01:00:36;;;;;;;872.70;812.45;;;;;;;27.49;47.88;100193.97;688401;28;138920;-65
2022/08/15 01:00:57;;;;;;;864.83;804.72;;;;;;;27.49;48.17;100192.03;688030;28;69438;-65
2022/08/15 01:01:19;;;;;;;871.65;811.33;;;;;;;27.49;48.12;100196.72;686418;28;44384;-65
2022/08/15 01:01:42;;;;;;;870.20;809.97;;;;;;;27.46;48.29;100189.84;682628;28;44385;-65
2022/08/15 01:02:07;;;;;;;872.05;811.67;;;;;;;27.42;47.93;100188.81;685451;28;45268;-66
2022/08/15 01:02:33;;;;;;;888.28;827.45;;;;;;;27.42;48.08;100194.34;686058;28;60063;-65
2022/08/15 01:02:57;;;;;;;870.90;810.58;;;;;;;27.39;48.09;100186.66;687418;28;70262;-65
2022/08/15 01:03:22;;;;;;;875.72;815.25;;;;;;;27.40;47.97;100181.91;687482;28;91849;-65
2022/08/15 01:03:49;;;;;;;873.55;813.15;;;;;;;27.41;48.02;100189.13;688337;28;138181;-65
2022/08/15 01:04:15;;;;;;;860.53;800.50;;;;;;;27.37;48.33;100182.50;685699;28;137596;-65
2022/08/15 01:04:37;;;;;;;855.92;796.00;;;;;;;27.36;48.42;100178.13;687644;28;92911;-65
2022/08/15 01:05:00;;;;;;;861.55;801.45;;;;;;;27.40;48.50;100181.91;688886;28;45096;-65
2022/08/15 01:05:21;;;;;;;869.38;809.08;;;;;;;27.41;48.40;100184.38;686512;28;69407;-66
2022/08/15 01:05:45;;;;;;;858.25;798.33;;;;;;;27.35;48.50;100176.47;689922;28;22418;-65
2022/08/15 01:06:08;;;;;;;874.67;814.25;;;;;;;27.35;48.67;100182.00;689228;28;91745;-65
2022/08/15 01:06:33;;;;;;;878.85;818.30;;;;;;;27.32;48.33;100181.50;685605;28;44896;-66
2022/08/15 01:06:58;;;;;;;887.80;826.85;;;;;;;27.35;48.12;100184.78;678826;28;136478;-65
2022/08/15 01:07:20;;;;;;;876.85;816.22;;;;;;;27.36;48.63;100183.66;682079;28;91479;-65
2022/08/15 01:07:43;;;;;;;861.40;801.33;;;;;;;27.36;48.28;100178.13;682708;28;69574;-65
2022/08/15 01:08:04;;;;;;;863.47;803.30;;;;;;;27.36;48.18;100178.94;683698;28;46262;-65
2022/08/15 01:08:29;;;;;;;878.15;817.58;;;;;;;27.37;47.99;100182.50;687424;28;45260;-65
2022/08/15 01:08:51;;;;;;;869.53;809.22;;;;;;;27.37;48.65;100188.06;688436;28;115128;-65
2022/08/15 01:09:13;;;;;;;871.83;811.47;;;;;;;27.36;48.12;100180.88;692733;28;22394;-65
2022/08/15 01:09:36;;;;;;;867.55;807.35;;;;;;;27.33;48.63;100183.13;688406;28;46356;-65
2022/08/15 01:09:57;;;;;;;869.58;809.20;;;;;;;27.30;48.74;100186.50;688481;28;90311;-65
2022/08/15 01:10:19;;;;;;;884.47;823.75;;;;;;;27.29;48.72;100181.25;689570;28;22423;-65
2022/08/15 01:10:40;;;;;;;879.28;818.75;;;;;;;27.31;48.45;100184.56;689224;28;22394;-65
2022/08/15 01:11:05;;;;;;;864.55;804.40;;;;;;;27.31;48.61;100182.63;688681;28;45056;-65
2022/08/15 01:11:32;;;;;;;863.88;803.78;;;;;;;27.33;48.68;100180.34;687057;28;60944;-65
2022/08/15 01:11:57;;;;;;;864.88;804.72;;;;;;;27.33;48.24;100190.63;685764;28;113596;-65
2022/08/15 01:12:20;;;;;;;881.42;820.80;;;;;;;27.31;48.42;100179.03;686768;28;115039;-65
2022/08/15 01:12:44;;;;;;;870.38;810.10;;;;;;;27.31;48.44;100181.81;685587;28;139175;-65
2022/08/15 01:13:06;;;;;;;864.95;804.83;;;;;;;27.31;48.25;100176.25;692706;28;22402;-65
2022/08/15 01:13:28;;;;;;;876.67;816.25;;;;;;;27.29;48.28;100178.47;692138;28;22602;-65
2022/08/15 01:13:52;;;;;;;873.38;812.92;;;;;;;27.30;48.28;100182.88;690904;28;70242;-65
2022/08/15 01:14:15;;;;;;;870.95;810.60;;;;;;;27.31;48.63;100182.63;688042;28;70348;-65
2022/08/15 01:14:41;;;;;;;865.45;805.25;;;;;;;27.35;48.39;100190.31;685673;28;70224;-65
2022/08/15 01:15:08;;;;;;;859.53;799.53;;;;;;;27.32;48.54;100178.72;682456;28;160898;-65
2022/08/15 01:15:31;;;;;;;842.25;782.72;;;;;;;27.33;48.62;100179.53;685719;28;138226;-65
2022/08/15 01:15:52;;;;;;;879.30;818.70;;;;;;;27.31;48.09;100182.63;688074;28;70259;-65
2022/08/15 01:16:14;;;;;;;881.92;821.22;;;;;;;27.29;48.15;100172.94;692257;28;23407;-65
2022/08/15 01:16:39;;;;;;;863.78;803.67;;;;;;;27.27;48.51;100186.25;694076;28;47645;-65
2022/08/15 01:17:01;;;;;;;867.80;807.42;;;;;;;27.24;48.61;100176.63;690374;28;134711;-65
2022/08/15 01:17:23;;;;;;;862.28;801.97;;;;;;;27.25;48.44;100182.97;694741;28;44134;-65
2022/08/15 01:17:45;;;;;;;852.70;792.90;;;;;;;27.24;48.50;100178.53;694829;28;44392;-65
2022/08/15 01:18:07;;;;;;;860.10;800.05;;;;;;;27.24;49.01;100178.53;693879;28;45076;-65
2022/08/15 01:18:29;;;;;;;855.28;795.45;;;;;;;27.24;48.51;100184.94;691540;28;45264;-65
2022/08/15 01:18:52;;;;;;;879.92;819.35;;;;;;;27.26;48.48;100179.91;691860;28;45239;-65
2022/08/15 01:19:16;;;;;;;877.45;816.90;;;;;;;27.27;48.97;100183.50;691819;28;45295;-65
2022/08/15 01:19:46;;;;;;;882.15;821.47;;;;;;;27.27;48.40;100175.16;687691;28;115965;-65
2022/08/15 01:20:12;;;;;;;886.08;825.28;;;;;;;27.27;48.49;100175.16;684927;28;160335;-66
2022/08/15 01:20:34;;;;;;;873.50;813.10;;;;;;;27.29;48.88;100179.28;688035;28;138150;-65
2022/08/15 01:20:58;;;;;;;879.20;818.65;;;;;;;27.29;48.59;100175.72;688784;28;44392;-65
2022/08/15 01:21:26;;;;;;;871.53;811.20;;;;;;;27.28;48.97;100176.81;683695;28;113466;-65
2022/08/15 01:22:00;;;;;;;869.63;809.33;;;;;;;27.26;49.27;100182.69;679175;28;161596;-65
2022/08/15 01:22:30;;;;;;;864.08;803.92;;;;;;;27.27;48.67;100178.78;681317;28;138287;-65
2022/08/15 01:23:04;;;;;;;869.33;809.13;;;;;;;27.26;48.56;100181.88;681681;28;138537;-65
2022/08/15 01:23:31;;;;;;;876.53;816.10;;;;;;;27.27;48.73;100186.25;686678;28;118884;-65
2022/08/15 01:24:01;;;;;;;870.00;809.75;;;;;;;27.27;49.14;100183.50;685979;28;136483;-65
2022/08/15 01:24:31;;;;;;;868.00;807.85;;;;;;;27.26;48.82;100179.91;685933;28;137671;-65
2022/08/15 01:24:58;;;;;;;863.53;803.42;;;;;;;27.25;48.75;100180.22;690193;28;137781;-65
2022/08/15 01:25:25;;;;;;;860.30;800.33;;;;;;;27.25;49.16;100177.44;688228;28;136389;-65
2022/08/15 01:25:49;;;;;;;860.15;800.28;;;;;;;27.27;48.59;100180.72;688031;28;138835;-65
2022/08/15 01:26:12;;;;;;;867.03;806.92;;;;;;;27.26;49.13;100184.63;689649;28;92280;-65
2022/08/15 01:26:35;;;;;;;855.83;796.03;;;;;;;27.24;48.69;100179.41;690696;28;67476;-65
2022/08/15 01:26:56;;;;;;;888.97;828.15;;;;;;;27.28;48.53;100185.16;689292;28;68952;-65
2022/08/15 01:27:18;;;;;;;879.97;819.30;;;;;;;27.24;48.75;100181.31;692738;28;14000;-65
2022/08/15 01:27:43;;;;;;;865.60;805.50;;;;;;;27.25;49.06;100180.22;691909;28;46452;-65
2022/08/15 01:28:08;;;;;;;867.00;806.83;;;;;;;27.25;49.27;100183.78;688982;28;115097;-65
2022/08/15 01:28:32;;;;;;;847.08;787.47;;;;;;;27.26;48.74;100179.09;686255;28;116363;-65
2022/08/15 01:28:55;;;;;;;839.60;780.17;;;;;;;27.25;49.22;100180.22;683180;28;136400;-65
2022/08/15 01:29:17;;;;;;;854.78;794.92;;;;;;;27.24;49.00;100173.00;686748;28;21483;-66
2022/08/15 01:29:39;;;;;;;861.42;801.35;;;;;;;27.25;49.25;100186.56;685414;28;69329;-65
2022/08/15 01:30:03;;;;;;;859.90;799.92;;;;;;;27.25;49.27;100183.78;688978;28;21291;-65
2022/08/15 01:30:27;;;;;;;861.05;801.00;;;;;;;27.26;49.13;100184.63;686740;28;112771;-65
2022/08/15 01:30:53;;;;;;;867.00;806.83;;;;;;;27.25;49.16;100178.25;684690;28;92256;-65
2022/08/15 01:31:19;;;;;;;874.78;814.35;;;;;;;27.25;48.68;100186.56;682550;28;136435;-65
2022/08/15 01:31:40;;;;;;;871.55;811.25;;;;;;;27.28;48.71;100188.72;684719;28;138040;-65
2022/08/15 01:32:02;;;;;;;865.88;805.67;;;;;;;27.26;49.13;100185.44;689829;28;23495;-65
2022/08/15 01:32:25;;;;;;;876.65;816.20;;;;;;;27.24;48.79;100184.09;688943;28;46359;-65
2022/08/15 01:32:47;;;;;;;870.65;810.30;;;;;;;27.25;49.21;100180.22;689138;28;44505;-64
2022/08/15 01:33:09;;;;;;;875.03;814.55;;;;;;;27.23;48.78;100179.69;692396;28;67489;-65
2022/08/15 01:33:32;;;;;;;865.80;805.65;;;;;;;27.23;49.32;100176.94;695374;28;24162;-65
2022/08/15 01:33:56;;;;;;;868.20;807.97;;;;;;;27.24;48.89;100178.53;693637;28;70586;-65
2022/08/15 01:34:19;;;;;;;863.03;802.97;;;;;;;27.24;49.08;100178.53;692633;28;92116;-65
2022/08/15 01:34:41;;;;;;;872.47;812.08;;;;;;;27.25;49.20;100180.22;693492;28;67460;-66
2022/08/15 01:35:03;;;;;;;864.80;804.72;;;;;;;27.24;48.82;100178.53;691633;28;23467;-65
2022/08/15 01:35:25;;;;;;;870.85;810.58;;;;;;;27.20;48.77;100174.75;690128;28;69549;-65
2022/08/15 01:35:50;;;;;;;874.92;814.53;;;;;;;27.22;48.92;100178.03;688352;28;46337;-65
2022/08/15 01:36:11;;;;;;;880.80;820.15;;;;;;;27.20;48.70;100181.13;682339;28;92257;-65
2022/08/15 01:36:33;;;;;;;865.55;805.38;;;;;;;27.21;48.80;100181.94;682002;28;30370;-65
2022/08/15 01:36:55;;;;;;;870.38;810.13;;;;;;;27.19;49.32;100178.63;680585;28;46407;-65
2022/08/15 01:37:17;;;;;;;872.80;812.30;;;;;;;27.16;49.31;100180.06;683284;28;22475;-65
2022/08/15 01:37:40;;;;;;;869.33;809.00;;;;;;;27.13;49.35;100175.97;683547;28;67863;-65
2022/08/15 01:38:03;;;;;;;862.58;802.47;;;;;;;27.12;49.72;100179.84;687313;28;45339;-65
2022/08/15 01:38:27;;;;;;;863.10;803.00;;;;;;;27.10;49.41;100179.34;686706;28;25982;-65
2022/08/15 01:38:54;;;;;;;868.13;807.95;;;;;;;27.09;49.80;100177.69;685362;28;115005;-65
2022/08/15 01:39:21;;;;;;;861.35;801.25;;;;;;;27.10;49.62;100176.56;685129;28;138226;-65
2022/08/15 01:39:54;;;;;;;865.40;805.22;;;;;;;27.11;49.72;100177.38;688500;28;61178;-65
2022/08/15 01:40:28;;;;;;;875.35;814.92;;;;;;;27.08;49.67;100177.97;685094;28;161227;-65
2022/08/15 01:40:57;;;;;;;886.38;825.58;;;;;;;27.10;49.50;100178.50;684922;28;138603;-65
2022/08/15 01:41:22;;;;;;;877.83;817.30;;;;;;;27.09;49.64;100179.63;682630;28;137600;-65
2022/08/15 01:41:47;;;;;;;874.15;813.78;;;;;;;27.08;49.33;100177.97;681854;28;138235;-65
2022/08/15 01:42:14;;;;;;;876.83;816.33;;;;;;;27.07;49.36;100176.31;684014;28;113156;-65
2022/08/15 01:42:41;;;;;;;879.50;818.92;;;;;;;27.05;49.57;100173.84;680314;28;138151;-65
2022/08/15 01:43:05;;;;;;;872.55;812.15;;;;;;;27.06;49.45;100180.25;676772;28;160914;-65
2022/08/15 01:43:30;;;;;;;865.20;805.00;;;;;;;27.05;49.86;100173.03;681418;28;113563;-65
2022/08/15 01:43:57;;;;;;;860.35;800.35;;;;;;;27.04;49.86;100171.38;683934;28;92003;-65
2022/08/15 01:44:20;;;;;;;863.17;803.03;;;;;;;27.08;49.37;100175.22;684671;28;138695;-65
2022/08/15 01:44:45;;;;;;;855.30;795.50;;;;;;;27.07;49.59;100171.63;687103;28;92116;-65
2022/08/15 01:45:11;;;;;;;858.70;798.70;;;;;;;27.07;49.83;100176.31;686940;28;90340;-65
2022/08/15 01:45:34;;;;;;;864.55;804.38;;;;;;;27.05;49.53;100170.28;685971;28;136505;-65
2022/08/15 01:45:58;;;;;;;863.08;803.00;;;;;;;27.04;49.40;100174.16;689736;28;93054;-65
2022/08/15 01:46:20;;;;;;;871.50;811.17;;;;;;;27.06;49.90;100174.69;692883;28;92292;-65
2022/08/15 01:46:50;;;;;;;853.33;793.53;;;;;;;27.02;49.65;100176.41;690681;28;44403;-65
2022/08/15 01:47:18;;;;;;;861.47;801.30;;;;;;;27.00;49.57;100181.44;685206;28;135924;-65
2022/08/15 01:47:47;;;;;;;854.45;794.55;;;;;;;26.96;49.81;100178.47;683368;28;135979;-65
2022/08/15 01:48:13;;;;;;;871.25;810.95;;;;;;;26.92;49.73;100169.09;685587;28;137610;-65